WEATHER DATA

YESTERDAY
Time Temp. Dewp. Hum. Wind dir Wind speed Wind gust Bar. 1h Prec. 24h Prec.
00:05 14.3 9.3 72 270 0.3 1.1 1014.3 0.0000 0.0000
00:15 14.3 9.3 72 270 0.8 1.4 1014.3 0.0000 0.0000
00:25 14.2 9.2 72 270 0.3 1.1 1014.3 0.0000 0.0000
00:35 14.1 8.9 71 270 0.8 1.1 1014.3 0.0000 0.0000
00:46 13.9 8.9 72 270 0.3 1.1 1014.1 0.0000 0.0000
00:55 13.9 9.1 73 270 0.8 1.1 1014.2 0.0000 0.0000
01:05 13.8 9.1 73 270 0.8 1.1 1014.2 0.0000 0.0000
01:16 13.8 9.1 73 270 0.8 1.1 1014 0.0000 0.0000
01:26 13.8 9.1 73 270 0.3 1.1 1014.1 0.0000 0.0000
01:36 13.8 9.3 74 270 0.3 1.1 1014.2 0.0000 0.0000
01:46 13.8 9.3 74 270 0.3 1.1 1014.1 0.0000 0.0000
01:56 13.7 9.2 74 270 0.8 1.4 1014 0.0000 0.0000
02:06 13.6 9.1 74 270 0.8 1.4 1014 0.0000 0.0000
02:16 13.5 9 74 270 0.3 1.1 1013.9 0.0000 0.0000
02:27 13.5 9 74 270 0.3 1.1 1014 0.0000 0.0000
02:37 13.5 9.2 75 270 0.8 1.1 1013.8 0.0000 0.0000
02:46 13.4 9.1 75 270 0.3 1.1 1013.7 0.0000 0.0000
02:56 13.5 9.2 75 270 0.8 1.1 1013.7 0.0000 0.0000
03:07 13.5 9.2 75 270 0.3 1.1 1013.7 0.0000 0.0000
03:17 13.4 9.1 75 270 0.3 1.1 1013.6 0.0000 0.0000
03:27 13.5 9.2 75 270 0.3 1.1 1013.7 0.0000 0.0000
03:37 13.4 9.1 75 270 0.3 1.1 1013.8 0.0000 0.0000
03:47 13.4 9.1 75 270 0.3 1.1 1013.7 0.0000 0.0000
03:57 13.3 9 75 270 0.8 1.1 1013.7 0.0000 0.0000
04:07 13.3 9 75 270 0.3 1.1 1013.8 0.0000 0.0000
04:18 13.2 9.1 76 270 0.8 1.1 1013.7 0.0000 0.0000
04:28 13.2 9.1 76 270 0.8 1.1 1013.7 0.0000 0.0000
04:37 13.1 9 76 270 0.3 1.4 1013.7 0.0000 0.0000
04:48 13.1 9 76 270 0.8 1.4 1013.6 0.0000 0.0000
04:58 13 8.9 76 270 0.8 1.4 1013.4 0.0000 0.0000
05:08 13 9.1 77 270 0.3 1.1 1013.5 0.0000 0.0000
05:18 13 8.9 76 270 0.3 1.1 1013.6 0.0000 0.0000
05:28 13 8.9 76 270 0.3 1.1 1013.8 0.0000 0.0000
05:38 13 8.9 76 270 0.3 1.4 1013.9 0.0000 0.0000
05:48 13 8.9 76 270 0.3 1.1 1013.8 0.0000 0.0000
05:58 13 9.1 77 309 0.3 0.8 1013.9 0.0000 0.0000
06:09 13 9.1 77 308 0.3 0.8 1013.9 0.0000 0.0000
06:19 13 9.1 77 270 0.3 1.1 1013.9 0.0000 0.0000
06:28 12.9 9 77 270 0.3 0.8 1014 0.0000 0.0000
06:39 12.9 9 77 270 0.3 1.1 1014 0.0000 0.0000
06:49 12.9 9 77 319 0.3 1.1 1014.2 0.0000 0.0000
06:59 12.9 9 77 339 0.3 1.1 1014.1 0.0000 0.0000
07:09 12.9 8.8 76 315 0.3 1.1 1014.1 0.0000 0.0000
07:19 12.8 8.7 76 315 0.3 1.1 1014.2 0.0000 0.0000
07:29 12.8 8.7 76 324 0.3 0.8 1014.4 0.0000 0.0000
07:39 12.7 8.6 76 347 0.3 1.1 1014.6 0.0000 0.0000
07:50 12.6 8.5 76 305 0.3 1.1 1014.5 0.0000 0.0000
08:00 12.5 8.4 76 270 0.3 1.1 1014.6 0.0000 0.0000
08:10 12.5 8.6 77 270 0.3 1.1 1014.6 0.0000 0.0000
08:19 12.5 8.6 77 270 0.3 1.1 1014.7 0.0000 0.0000
08:30 12.5 8.6 77 270 0.3 1.1 1014.8 0.0000 0.0000
08:40 12.5 8.6 77 270 0.3 1.1 1014.8 0.0000 0.0000
08:50 12.5 8.6 77 270 0.3 1.1 1014.8 0.0000 0.0000
09:00 12.5 8.6 77 270 0.3 1.1 1014.8 0.0000 0.0000
09:11 12.6 8.9 78 270 0.3 1.1 1014.7 0.0000 0.0000
09:20 12.7 9 78 270 0.3 1.1 1014.8 0.0000 0.0000
09:30 12.7 9 78 270 0.3 1.1 1014.8 0.0000 0.0000
09:41 12.8 9.1 78 270 0.8 1.1 1014.8 0.0000 0.0000
09:51 12.9 9.2 78 270 0.3 1.1 1014.8 0.0000 0.0000
10:01 13 9.3 78 270 0.3 1.1 1014.9 0.0000 0.0000
10:10 13.2 9.5 78 270 0.3 1.1 1015.1 0.0000 0.0000
10:21 13.3 9.5 78 270 0.3 1.1 1015 0.0000 0.0000
10:31 13.4 9.6 78 315 0.3 0.8 1015.2 0.0000 0.0000
10:41 13.6 9.8 78 270 0.3 1.1 1015.1 0.0000 0.0000
10:51 13.8 10 78 270 0.8 1.4 1015.1 0.0000 0.0000
11:02 14 10.2 78 270 0.8 1.4 1015.3 0.0000 0.0000
11:11 14.3 10.3 77 270 0.3 1.1 1015.1 0.0000 0.0000
11:21 14.4 10.2 76 319 0.3 1.1 1015.3 0.0000 0.0000
11:32 14.6 10.2 75 315 0.3 1.1 1015.2 0.0000 0.0000
11:42 14.7 10.1 74 310 0.3 1.1 1015.3 0.0000 0.0000
11:52 15.4 10.8 74 270 0.3 1.4 1015 0.0000 0.0000
12:02 16.3 11 71 270 0.3 1.1 1015 0.0000 0.0000
12:12 16.7 11 69 270 0.3 1.1 1014.9 0.0000 0.0000
12:22 16.6 10.7 68 320 0.3 1.1 1014.8 0.0000 0.0000
12:32 16.6 10.7 68 307 0.3 1.1 1014.6 0.0000 0.0000
12:43 16.6 10.5 67 315 0.3 1.1 1014.6 0.0000 0.0000
12:53 16.6 10.7 68 303 0.3 1.1 1014.7 0.0000 0.0000
13:02 16.6 10.7 68 336 0.3 0.8 1014.6 0.0000 0.0000
13:12 16.6 10.5 67 315 0.3 1.4 1014.5 0.0000 0.0000
13:23 16.7 10.5 67 315 0.3 1.1 1014.5 0.0000 0.0000
13:33 16.7 10.5 67 270 0.3 1.1 1014.4 0.0000 0.0000
13:43 16.8 10.9 68 315 0.3 0.8 1014.3 0.0000 0.0000
13:53 17 10.8 67 270 0.3 1.1 1014.3 0.0000 0.0000
14:03 17.2 10.8 66 270 0.3 1.1 1014.1 0.0000 0.0000
14:13 17.4 11 66 308 0.3 1.1 1014.2 0.0000 0.0000
14:23 17.8 11.1 65 270 0.3 1.4 1014 0.0000 0.0000
14:34 18.1 11.4 65 270 0.3 0.8 1014.1 0.0000 0.0000
14:44 18.3 11.4 64 270 0.3 1.1 1014.1 0.0000 0.0000
14:53 18.6 11.4 63 270 0.3 1.1 1013.9 0.0000 0.0000
15:04 18.8 11.4 62 270 0.3 1.1 1014 0.0000 0.0000
15:14 19 11.6 62 270 0.3 1.1 1013.7 0.0000 0.0000
15:24 19.2 11.5 61 270 0.3 0.8 1013.8 0.0000 0.0000
15:34 19.4 11.7 61 270 0.3 1.1 1013.8 0.0000 0.0000
15:44 19.6 11.4 59 270 0.3 1.4 1013.6 0.0000 0.0000
15:54 19.6 11.4 59 270 0.3 1.1 1013.7 0.0000 0.0000
16:04 19.6 11.4 59 270 0.3 1.4 1013.6 0.0000 0.0000
16:14 19.5 11.3 59 270 0.3 1.1 1013.7 0.0000 0.0000
16:25 19.5 11.3 59 233 0.3 1.4 1013.6 0.0000 0.0000
16:35 19.4 11.4 60 270 0.3 1.1 1013.5 0.0000 0.0000
16:44 19.4 11.2 59 270 0.3 1.4 1013.5 0.0000 0.0000
16:55 19.4 11.2 59 270 0.3 1.4 1013.6 0.0000 0.0000
17:05 19.4 11.2 59 270 0.3 1.1 1013.5 0.0000 0.0000
17:15 19.3 11.1 59 270 0.3 1.4 1013.6 0.0000 0.0000
17:25 19.3 10.8 58 225 0.3 1.4 1013.9 0.0000 0.0000
17:35 19.3 10.8 58 235 0.3 1.4 1013.8 0.0000 0.0000
17:45 19.2 11 59 270 0.3 1.4 1013.9 0.0000 0.0000
17:55 19.1 11.2 60 270 0.3 1.4 1013.8 0.0000 0.0000
18:06 19 11.3 61 239 0.3 1.1 1013.9 0.0000 0.0000
18:16 18.8 11.4 62 270 0.3 1.4 1013.9 0.0000 0.0000
18:25 18.7 11.3 62 240 0.3 1.4 1013.8 0.0000 0.0000
18:35 18.5 11.3 63 239 0.3 1.1 1014.3 0.0000 0.0000
18:46 18.3 11.1 63 270 0.3 1.1 1014.2 0.0000 0.0000
18:56 18.1 11.2 64 270 0.3 0.8 1014.3 0.0000 0.0000
19:06 18 11.1 64 270 0.3 1.1 1014.4 0.0000 0.0000
19:16 17.8 11.1 65 270 0.3 0.8 1014.5 0.0000 0.0000
19:26 17.6 11.2 66 270 0.3 1.1 1014.7 0.0000 0.0000
19:36 17.5 11.3 67 270 0.3 1.1 1014.8 0.0000 0.0000
19:46 17.3 11.1 67 270 0.3 1.1 1014.8 0.0000 0.0000
19:57 17.2 11.5 69 270 0.3 1.1 1014.7 0.0000 0.0000
20:07 17.1 11.4 69 270 0.3 1.1 1014.9 0.0000 0.0000
20:16 17 11.5 70 270 0.3 1.1 1014.9 0.0000 0.0000
20:26 16.9 11.4 70 302 0.3 1.1 1015 0.0000 0.0000
20:37 16.8 11.5 71 270 0.3 0.8 1015.1 0.0000 0.0000
20:47 16.6 11.5 72 270 0.3 1.1 1015.3 0.0000 0.0000
20:57 16.5 11.4 72 270 0.3 1.1 1015.4 0.0000 0.0000
21:07 16.3 11.2 72 270 0.3 0.8 1015.4 0.0000 0.0000
21:17 16.2 11.2 72 306 0.3 1.1 1015.5 0.0000 0.0000
21:27 16 11.2 73 270 0.3 0.8 1015.6 0.0000 0.0000
21:43 15.8 11.2 74 270 0.3 1.1 1015.7 0.0000 0.0000
21:53 15.7 11.1 74 270 0.3 1.1 1015.7 0.0000 0.0000
22:03 15.5 10.9 74 270 0.3 0.8 1015.8 0.0000 0.0000
22:13 15.4 11 75 270 0.3 1.1 1015.9 0.0000 0.0000
22:23 15.3 10.9 75 270 0.3 1.1 1015.9 0.0000 0.0000
22:43 15.1 10.7 75 306 0.3 1.1 1016 0.0000 0.0000
22:53 14.9 10.7 76 270 0.3 1.1 1015.9 0.0000 0.0000
23:04 14.8 10.6 76 270 0.3 1.1 1016.1 0.0000 0.0000
23:13 14.6 10.4 76 270 0.3 1.1 1016.1 0.0000 0.0000
23:23 14.5 10.5 77 270 0.3 0.8 1016.1 0.0000 0.0000
23:34 14.3 10.3 77 270 0.3 0.8 1016.2 0.0000 0.0000
23:44 14.2 10.4 78 270 0.3 1.1 1016.2 0.0000 0.0000
23:54 14 10.2 78 270 0.3 0.8 1016.3 0.0000 0.0000

DAY STATISTIC

2018-10-17
TEMPERATURE
AVERAGE
15.3
HIGH
19.6
15:44
LOW
12.5
08:00
PRESSURE
AVERAGE
1014.5
HIGH
1016.3
23:54
LOW
1013.4
04:58
DEWPOINT
AVERAGE
10.1
HIGH
11.7
15:34
LOW
8.4
08:00
HUMIDITY
AVERAGE
71
HIGH
78
09:11
LOW
58
17:25
WIND SPEED
AVERAGE
0.4
HIGH
0.8
00:15
WIND GUST
AVERAGE
1.1
HIGH
1.4
00:15
WIND DIRECTION
PREVAILING
W
78%
N
1.4
NE
0.0
E
0.0
SE
0.0
S
0.0
SW
4.3
W
78.0
NW
16.3
PRECIPITATION
RAIN HOUR
0.0
RAIN DAY
0.0
TEMPERATURE (°C)
LOW
12.5
HIGH
19.6
AVERAGE
15.3
PRESSURE (hpa)
LOW
1013.4
HIGH
1016.3
AVERAGE
1014.5
DEVICE